Time;durP1;ratioP1;P1;durP2;ratioP2;P2;SDS_P1;SDS_P2;PMS_P1;PMS_P2;Temp;Humidity;BMP_temperature;BMP_pressure;BME280_temperature;BME280_humidity;BME280_pressure;Samples;Min_cycle;Max_cycle;Signal;HPM_P1;HPM_P2
2022/08/19 00:01:43;;;;;;;11.75;3.77;;;;;;;22.57;92.92;99335.46;1667775;84;21601;-62
2022/08/19 00:04:12;;;;;;;10.30;3.50;;;;;;;22.54;92.97;99332.06;1680027;84;21507;-63
2022/08/19 00:06:40;;;;;;;10.45;3.40;;;;;;;22.52;92.64;99338.58;1676466;84;21582;-63
2022/08/19 00:09:13;;;;;;;9.78;3.35;;;;;;;22.46;92.93;99337.34;1648891;86;21766;-62
2022/08/19 00:11:40;;;;;;;12.13;3.47;;;;;;;22.42;93.10;99341.81;1669734;84;21577;-63
2022/08/19 00:14:09;;;;;;;8.88;3.92;;;;;;;22.46;92.83;99339.18;1673895;84;21533;-63
2022/08/19 00:16:38;;;;;;;9.10;4.20;;;;;;;22.45;92.94;99343.70;1672363;83;21565;-63
2022/08/19 00:19:07;;;;;;;8.83;4.03;;;;;;;22.39;93.27;99349.63;1680548;83;21513;-63
2022/08/19 00:21:38;;;;;;;6.85;3.95;;;;;;;22.34;93.57;99339.38;1677574;85;22170;-64
2022/08/19 00:24:03;;;;;;;9.58;3.67;;;;;;;22.34;93.70;99341.22;1669661;84;21022;-64
2022/08/19 00:26:30;;;;;;;8.08;3.65;;;;;;;22.34;93.70;99341.22;1678209;83;21479;-64
2022/08/19 00:28:56;;;;;;;5.97;3.70;;;;;;;22.27;94.46;99338.78;1648665;86;21547;-66
2022/08/19 00:31:24;;;;;;;8.80;3.77;;;;;;;22.21;94.55;99344.67;1633803;86;21152;-64
2022/08/19 00:33:51;;;;;;;10.20;3.70;;;;;;;22.14;95.20;99348.45;1641642;86;21788;-63
2022/08/19 00:36:18;;;;;;;9.78;4.42;;;;;;;22.12;95.54;99347.77;1637234;86;21492;-64
2022/08/19 00:38:46;;;;;;;10.03;4.67;;;;;;;22.05;96.28;99344.81;1641436;85;21046;-64
2022/08/19 00:41:14;;;;;;;12.33;4.72;;;;;;;22.00;96.61;99343.56;1644775;86;21510;-63
2022/08/19 00:43:41;;;;;;;;;;;;;;;21.98;96.77;99341.03;1643763;85;21596;-63
2022/08/19 00:46:07;;;;;;;9.55;3.65;;;;;;;21.95;97.80;99348.87;1643718;86;21846;-64
2022/08/19 00:48:36;;;;;;;11.22;3.72;;;;;;;21.96;96.73;99349.70;1640277;86;21469;-63
2022/08/19 00:51:03;;;;;;;;;;;;;;;21.93;97.10;99358.05;1645981;86;21489;-63
2022/08/19 00:53:30;;;;;;;10.35;4.05;;;;;;;21.92;98.23;99359.02;1628558;86;20441;-63
2022/08/19 00:55:58;;;;;;;7.87;3.67;;;;;;;21.88;97.51;99358.97;1622965;86;21700;-63
2022/08/19 00:58:28;;;;;;;4.75;4.12;;;;;;;21.89;97.60;99357.48;1623670;86;21797;-63
2022/08/19 01:00:54;;;;;;;11.83;4.35;;;;;;;21.86;97.44;99362.28;1645784;85;21574;-63
2022/08/19 01:03:22;;;;;;;7.45;3.83;;;;;;;21.81;98.33;99369.89;1644510;86;21558;-63
2022/08/19 01:05:49;;;;;;;4.30;3.77;;;;;;;21.81;98.33;99369.89;1640343;85;21604;-63
2022/08/19 01:08:17;;;;;;;8.83;4.15;;;;;;;21.78;98.48;99369.19;1669515;85;21111;-63
2022/08/19 01:10:49;;;;;;;5.65;4.35;;;;;;;21.75;98.75;99362.78;1672766;84;22009;-63
2022/08/19 01:13:18;;;;;;;10.53;4.22;;;;;;;21.72;99.27;99367.10;1679228;84;21009;-63
2022/08/19 01:15:49;;;;;;;8.78;3.75;;;;;;;21.71;99.52;99361.89;1677226;84;21621;-63
2022/08/19 01:18:16;;;;;;;9.13;4.20;;;;;;;21.78;99.33;99372.38;1678706;85;21523;-63
2022/08/19 01:20:43;;;;;;;12.20;4.22;;;;;;;21.78;99.33;99372.38;1676100;84;21025;-63
2022/08/19 01:23:10;;;;;;;6.55;4.00;;;;;;;21.83;98.78;99369.25;1682998;84;21779;-63
2022/08/19 01:25:42;;;;;;;6.75;3.67;;;;;;;21.80;98.96;99369.05;1676071;85;21476;-62
2022/08/19 01:28:21;;;;;;;7.97;4.05;;;;;;;21.85;98.61;99363.25;1679947;84;21664;-63
2022/08/19 01:30:48;;;;;;;19.65;4.90;;;;;;;21.86;98.39;99355.59;1648205;84;21518;-62
2022/08/19 01:33:15;;;;;;;11.03;4.15;;;;;;;21.84;98.34;99351.72;1674950;85;21503;-62
2022/08/19 01:35:42;;;;;;;7.97;3.83;;;;;;;21.82;98.31;99344.83;1653833;84;21887;-62
2022/08/19 01:38:12;;;;;;;6.17;3.95;;;;;;;21.73;98.60;99350.05;1680256;84;21597;-62
2022/08/19 01:40:39;;;;;;;9.35;3.87;;;;;;;21.72;99.01;99344.36;1689459;83;21581;-62
2022/08/19 01:43:06;;;;;;;11.35;4.40;;;;;;;21.72;99.01;99349.71;1671292;85;21441;-62
2022/08/19 01:45:34;;;;;;;7.17;3.85;;;;;;;21.69;99.26;99347.31;1675025;85;21176;-62
2022/08/19 01:48:01;;;;;;;7.80;4.78;;;;;;;21.64;99.65;99340.70;1679004;85;21733;-62
2022/08/19 01:50:27;;;;;;;9.60;4.65;;;;;;;21.61;99.94;99350.38;1679912;85;21533;-62
2022/08/19 01:52:54;;;;;;;9.33;4.25;;;;;;;21.57;99.97;99345.80;1677062;85;21593;-62
2022/08/19 01:55:23;;;;;;;13.85;4.30;;;;;;;21.57;99.97;99345.80;1678414;84;21451;-62
2022/08/19 01:57:52;;;;;;;8.30;3.72;;;;;;;21.53;100.00;99344.38;1678145;85;22473;-62
2022/08/19 02:00:20;;;;;;;11.57;4.45;;;;;;;21.48;100.00;99341.31;1678092;84;21436;-63
2022/08/19 02:02:47;;;;;;;9.63;4.55;;;;;;;21.48;100.00;99341.31;1678953;83;21516;-62
2022/08/19 02:05:15;;;;;;;10.77;4.40;;;;;;;21.45;100.00;99337.07;1678092;85;21549;-62
2022/08/19 02:10:19;;;;;;;8.03;4.90;;;;;;;20.76;100.00;99355.41;1786620;79;23146;-61
2022/08/19 02:12:46;;;;;;;5.70;4.75;;;;;;;21.16;100.00;99345.09;1742840;80;21680;-63
2022/08/19 02:15:12;;;;;;;8.30;4.25;;;;;;;21.17;100.00;99350.31;1700157;81;22177;-62
2022/08/19 02:17:40;;;;;;;9.60;4.95;;;;;;;21.17;100.00;99350.31;1708882;81;21541;-64
2022/08/19 02:20:08;;;;;;;8.30;4.83;;;;;;;21.12;100.00;99349.88;1710658;83;21545;-63
2022/08/19 02:22:35;;;;;;;7.97;4.40;;;;;;;21.07;100.00;99355.29;1703759;81;21459;-64
2022/08/19 02:25:01;;;;;;;9.35;4.90;;;;;;;21.06;100.00;99358.94;1705880;81;21569;-63
2022/08/19 02:27:28;;;;;;;7.47;4.63;;;;;;;21.06;100.00;99353.59;1702601;83;21880;-63
2022/08/19 02:29:57;;;;;;;6.70;4.78;;;;;;;21.03;100.00;99354.72;1713648;81;21494;-63
2022/08/19 02:32:24;;;;;;;14.83;5.35;;;;;;;21.05;100.00;99363.44;1708251;81;21541;-63
2022/08/19 02:34:52;;;;;;;11.48;5.22;;;;;;;21.06;100.00;99361.61;1709850;81;21069;-63
2022/08/19 02:40:07;;;;;;;8.27;4.83;;;;;;;21.02;100.00;99365.55;1705250;82;21816;-62
2022/08/19 02:42:35;;;;;;;9.30;5.00;;;;;;;21.00;100.00;99364.34;1717595;81;21727;-62
2022/08/19 02:45:02;;;;;;;12.18;4.80;;;;;;;21.00;100.00;99361.67;1718689;81;21419;-64
2022/08/19 02:47:28;;;;;;;8.25;4.33;;;;;;;20.97;100.00;99362.80;1683975;83;21602;-63
2022/08/19 02:49:56;;;;;;;17.25;4.87;;;;;;;20.98;100.00;99356.48;1697188;83;21482;-63
2022/08/19 02:52:23;;;;;;;13.40;5.10;;;;;;;20.97;100.00;99354.79;1692832;83;27034;-64
2022/08/19 02:54:49;;;;;;;8.18;4.67;;;;;;;20.98;100.00;99364.98;1687967;83;21454;-64
2022/08/19 02:57:16;;;;;;;12.20;5.53;;;;;;;20.98;100.00;99364.98;1694921;83;21437;-64
2022/08/19 02:59:43;;;;;;;10.78;5.47;;;;;;;20.98;100.00;99372.53;1682768;83;21525;-63
2022/08/19 03:02:09;;;;;;;10.98;4.90;;;;;;;20.97;100.00;99370.82;1692587;83;21628;-63
2022/08/19 03:04:36;;;;;;;11.60;4.65;;;;;;;20.95;100.00;99370.13;1690067;83;21650;-64
2022/08/19 03:07:03;;;;;;;11.53;4.95;;;;;;;20.93;100.00;99371.25;1698604;82;21481;-63
2022/08/19 03:09:30;;;;;;;11.40;4.55;;;;;;;20.97;100.00;99376.17;1677948;82;21609;-63
2022/08/19 03:11:57;;;;;;;11.15;4.75;;;;;;;20.97;100.00;99376.17;1660429;84;21594;-63
2022/08/19 03:14:24;;;;;;;10.60;5.12;;;;;;;20.93;100.00;99368.08;1677140;83;21476;-63
2022/08/19 03:16:52;;;;;;;9.87;4.93;;;;;;;20.93;100.00;99376.59;1676231;82;22114;-64
2022/08/19 03:19:20;;;;;;;11.80;4.90;;;;;;;20.92;100.00;99374.89;1678784;83;21504;-63
2022/08/19 03:21:47;;;;;;;6.05;4.90;;;;;;;20.93;100.00;99382.77;1677402;83;21431;-63
2022/08/19 03:24:15;;;;;;;9.67;5.40;;;;;;;20.91;100.00;99383.41;1673989;82;21567;-63
2022/08/19 03:26:45;;;;;;;11.57;4.77;;;;;;;20.93;100.00;99387.28;1666949;82;21686;-63
2022/08/19 03:29:12;;;;;;;8.90;4.67;;;;;;;20.94;100.00;99387.12;1647031;85;22141;-63
2022/08/19 03:31:40;;;;;;;9.48;4.90;;;;;;;20.94;100.00;99387.12;1631270;86;21531;-63
2022/08/19 03:34:07;;;;;;;7.95;4.85;;;;;;;20.95;100.00;99386.16;1701730;81;21007;-63
2022/08/19 03:36:34;;;;;;;11.97;4.50;;;;;;;20.98;100.00;99384.55;1705683;81;21517;-64
2022/08/19 03:39:01;;;;;;;5.85;4.67;;;;;;;21.04;100.00;99379.61;1659207;83;21568;-62
2022/08/19 03:41:32;;;;;;;14.03;4.87;;;;;;;21.10;100.00;99380.41;1703494;82;21802;-62
2022/08/19 03:43:58;;;;;;;7.50;4.87;;;;;;;21.10;100.00;99380.41;1708318;81;21488;-63
2022/08/19 03:46:29;;;;;;;7.58;4.70;;;;;;;21.14;100.00;99379.14;1688686;81;21462;-62
2022/08/19 03:48:57;;;;;;;8.33;4.45;;;;;;;21.17;100.00;99388.20;1705116;82;21569;-63
2022/08/19 03:51:30;;;;;;;11.70;4.92;;;;;;;21.22;100.00;99382.45;1692890;81;21450;-63
2022/08/19 03:53:59;;;;;;;9.83;4.65;;;;;;;21.24;100.00;99383.98;1710463;81;21741;-62
2022/08/19 03:56:27;;;;;;;8.35;4.60;;;;;;;21.26;100.00;99383.86;1702832;81;21498;-62
2022/08/19 03:58:56;;;;;;;7.37;4.83;;;;;;;21.31;100.00;99389.63;1715302;81;21436;-63
2022/08/19 04:01:29;;;;;;;9.13;5.28;;;;;;;21.34;100.00;99391.53;1701607;81;21939;-62
2022/08/19 04:03:57;;;;;;;10.35;5.15;;;;;;;21.38;100.00;99388.92;1708094;81;21502;-61
2022/08/19 04:06:34;;;;;;;10.18;4.55;;;;;;;21.48;100.00;99389.45;1674289;82;21809;-62
2022/08/19 04:09:03;;;;;;;7.72;4.53;;;;;;;21.57;100.00;99391.28;1708839;81;26499;-61
2022/08/19 04:11:41;;;;;;;7.17;4.70;;;;;;;21.66;100.00;99388.22;1688033;83;21588;-61
2022/08/19 04:14:07;;;;;;;10.55;4.75;;;;;;;21.73;100.00;99398.20;1691823;81;21571;-62
2022/08/19 04:16:34;;;;;;;21.50;6.23;;;;;;;21.77;100.00;99403.64;1693679;83;21508;-62
2022/08/19 04:19:01;;;;;;;8.68;4.80;;;;;;;21.84;100.00;99400.39;1700355;81;22161;-62
2022/08/19 04:21:28;;;;;;;9.95;5.67;;;;;;;21.92;100.00;99401.34;1687785;83;21488;-62
2022/08/19 04:23:56;;;;;;;8.27;5.10;;;;;;;21.97;100.00;99404.43;1697744;81;20960;-62
2022/08/19 04:26:28;;;;;;;12.23;5.20;;;;;;;22.03;100.00;99408.86;1698843;83;21432;-62
2022/08/19 04:28:55;;;;;;;10.38;5.10;;;;;;;22.12;100.00;99410.17;1688161;81;21449;-61
2022/08/19 04:31:25;;;;;;;14.10;5.13;;;;;;;22.19;100.00;99408.24;1692539;83;21810;-62
2022/08/19 04:33:56;;;;;;;9.50;4.75;;;;;;;22.27;100.00;99404.39;1699909;81;21864;-62
2022/08/19 04:36:27;;;;;;;9.33;4.67;;;;;;;22.40;100.00;99397.38;1688052;81;21452;-62
2022/08/19 04:38:55;;;;;;;8.53;5.25;;;;;;;22.40;100.00;99397.38;1679501;83;21460;-62
2022/08/19 04:44:09;;;;;;;5.00;4.40;;;;;;;22.51;100.00;99404.71;1691442;82;22217;-62
2022/08/19 04:46:35;;;;;;;7.87;4.42;;;;;;;22.60;99.31;99404.30;1686281;82;21504;-61
2022/08/19 04:49:04;;;;;;;8.38;4.80;;;;;;;22.66;99.06;99409.55;1689192;83;21560;-62
2022/08/19 04:51:33;;;;;;;17.20;5.70;;;;;;;22.72;98.85;99409.81;1692856;81;21576;-62
2022/08/19 04:54:01;;;;;;;16.25;4.85;;;;;;;22.81;97.22;99411.24;1698285;81;21445;-62
2022/08/19 04:56:28;;;;;;;13.08;5.30;;;;;;;22.81;97.22;99411.24;1682214;83;21862;-62
2022/08/19 04:58:55;;;;;;;10.50;4.30;;;;;;;22.86;96.42;99408.97;1691700;83;21508;-62
2022/08/19 05:01:28;;;;;;;15.68;5.20;;;;;;;22.90;96.25;99417.88;1691200;82;21587;-62
2022/08/19 05:03:56;;;;;;;12.03;5.37;;;;;;;23.01;95.03;99416.83;1684343;83;21181;-61
2022/08/19 05:06:23;;;;;;;21.10;5.20;;;;;;;23.16;93.80;99413.17;1686211;82;21559;-62
2022/08/19 05:08:50;;;;;;;10.40;4.55;;;;;;;23.16;93.80;99413.17;1699287;81;21858;-63
2022/08/19 05:11:24;;;;;;;18.98;5.28;;;;;;;23.22;93.50;99409.87;1741547;80;21551;-63
2022/08/19 05:13:52;;;;;;;13.38;4.53;;;;;;;23.28;94.00;99401.71;1744157;80;21612;-61
2022/08/19 05:16:20;;;;;;;13.03;5.00;;;;;;;23.27;92.06;99404.06;1702579;83;21649;-61
2022/08/19 05:24:19;;;;;;;17.67;5.33;;;;;;;23.35;90.89;99408.66;1705336;82;21005;-62
2022/08/19 05:26:47;;;;;;;9.90;5.00;;;;;;;23.37;90.94;99405.33;1707539;82;21517;-62
2022/08/19 05:29:19;;;;;;;14.78;4.55;;;;;;;23.49;90.89;99400.08;1715693;82;21083;-62
2022/08/19 05:31:47;;;;;;;12.93;4.60;;;;;;;23.49;90.89;99400.08;1676947;82;21544;-61
2022/08/19 05:34:14;;;;;;;11.35;5.00;;;;;;;23.62;90.58;99402.34;1696768;82;21855;-63
2022/08/19 05:36:42;;;;;;;10.82;4.53;;;;;;;23.62;90.58;99402.34;1710093;82;21573;-61
2022/08/19 05:39:13;;;;;;;16.05;5.00;;;;;;;23.66;89.32;99399.20;1703752;82;21615;-61
2022/08/19 05:41:47;;;;;;;12.35;4.67;;;;;;;23.79;88.97;99399.31;1707046;82;21827;-61
2022/08/19 05:44:14;;;;;;;9.08;4.67;;;;;;;23.95;88.34;99405.31;1711034;83;20938;-62
2022/08/19 05:46:46;;;;;;;10.53;4.58;;;;;;;24.03;88.58;99404.02;1694267;83;21951;-62
2022/08/19 05:49:12;;;;;;;13.20;4.55;;;;;;;24.08;87.75;99401.20;1717226;82;21778;-61
2022/08/19 05:51:39;;;;;;;12.68;4.85;;;;;;;24.17;86.47;99406.64;1708992;83;21517;-61
2022/08/19 05:54:06;;;;;;;7.37;4.37;;;;;;;24.23;86.12;99406.00;1718360;82;21448;-62
2022/08/19 05:56:37;;;;;;;15.90;4.62;;;;;;;24.28;85.55;99400.48;1704296;83;20942;-62
2022/08/19 05:59:03;;;;;;;12.88;4.80;;;;;;;24.34;85.48;99403.03;1710273;82;21597;-61
2022/08/19 06:01:30;;;;;;;11.40;4.40;;;;;;;24.41;84.89;99404.08;1709406;82;21096;-62
2022/08/19 06:03:57;;;;;;;11.43;4.28;;;;;;;24.48;84.30;99403.75;1710856;82;21668;-62
2022/08/19 06:06:24;;;;;;;14.05;5.30;;;;;;;24.52;83.21;99399.45;1696900;82;20997;-62
2022/08/19 06:08:50;;;;;;;11.43;4.30;;;;;;;24.58;83.26;99399.66;1712960;82;21620;-60
2022/08/19 06:11:38;;;;;;;12.73;4.70;;;;;;;24.64;83.14;99394.97;1706582;82;21848;-62
2022/08/19 06:14:10;;;;;;;8.63;4.95;;;;;;;24.71;82.99;99398.34;1737599;80;21453;-61
2022/08/19 06:16:39;;;;;;;14.00;4.75;;;;;;;24.80;82.58;99397.36;1738809;80;21043;-60
2022/08/19 06:19:09;;;;;;;5.65;4.30;;;;;;;24.88;82.46;99385.28;1733162;80;21417;-61
2022/08/19 06:21:38;;;;;;;8.38;4.42;;;;;;;24.97;82.35;99385.64;1699929;82;21062;-61
2022/08/19 06:24:08;;;;;;;13.85;4.15;;;;;;;25.08;81.22;99384.49;1709509;82;21823;-60
2022/08/19 06:26:37;;;;;;;8.80;3.62;;;;;;;25.17;80.18;99384.84;1688317;82;21618;-60
2022/08/19 06:29:06;;;;;;;15.10;4.62;;;;;;;25.24;79.73;99383.22;1688410;82;21395;-61
2022/08/19 06:31:34;;;;;;;6.97;4.85;;;;;;;25.32;79.98;99384.23;1693323;83;21523;-63
2022/08/19 06:34:04;;;;;;;13.38;4.83;;;;;;;25.36;79.38;99382.89;1690412;83;21613;-62
2022/08/19 06:36:39;;;;;;;8.25;4.17;;;;;;;25.42;79.53;99380.86;1700096;82;22133;-61
2022/08/19 06:39:21;;;;;;;10.28;4.90;;;;;;;25.51;79.30;99381.72;1741367;80;21449;-61
2022/08/19 06:41:50;;;;;;;12.10;4.78;;;;;;;25.60;78.72;99371.28;1737046;80;21410;-61
2022/08/19 06:44:18;;;;;;;14.47;4.70;;;;;;;25.68;76.93;99374.47;1742450;80;21565;-62
2022/08/19 06:46:45;;;;;;;11.10;4.80;;;;;;;25.72;74.95;99373.95;1730323;80;21545;-62
2022/08/19 06:49:13;;;;;;;10.20;4.13;;;;;;;25.79;75.40;99374.95;1734236;80;21814;-61
2022/08/19 06:51:43;;;;;;;9.20;4.95;;;;;;;25.88;76.12;99375.80;1736124;80;21863;-62
2022/08/19 06:54:10;;;;;;;11.28;4.72;;;;;;;25.98;75.58;99372.94;1729986;80;20982;-61
2022/08/19 06:56:37;;;;;;;16.82;4.40;;;;;;;26.00;75.57;99369.05;1736166;80;27112;-61
2022/08/19 06:59:07;;;;;;;19.73;4.57;;;;;;;26.12;75.36;99378.12;1742760;80;21571;-62
2022/08/19 07:01:41;;;;;;;10.50;4.50;;;;;;;26.23;75.49;99384.48;1696408;82;22030;-62
2022/08/19 07:04:08;;;;;;;15.15;4.65;;;;;;;26.30;74.59;99381.95;1729130;80;21542;-63
2022/08/19 07:06:36;;;;;;;7.22;4.03;;;;;;;26.34;73.96;99385.98;1733680;80;21522;-62
2022/08/19 07:09:05;;;;;;;16.65;4.50;;;;;;;26.34;72.54;99380.07;1693719;82;24063;-61
2022/08/19 07:11:32;;;;;;;18.35;4.33;;;;;;;26.45;71.58;99379.34;1706815;82;21466;-62
2022/08/19 07:14:00;;;;;;;20.57;4.62;;;;;;;26.49;72.45;99372.62;1701431;82;21769;-62
2022/08/19 07:16:27;;;;;;;10.90;4.67;;;;;;;26.57;72.31;99371.22;1701008;82;21578;-62
2022/08/19 07:18:54;;;;;;;17.45;4.33;;;;;;;26.66;70.13;99368.02;1701299;82;21411;-62
2022/08/19 07:21:26;;;;;;;14.07;5.33;;;;;;;26.73;69.38;99367.13;1708904;82;21038;-61
2022/08/19 07:23:52;;;;;;;9.83;4.45;;;;;;;26.73;69.38;99367.13;1710648;82;21503;-60
2022/08/19 07:26:24;;;;;;;10.53;4.50;;;;;;;26.74;69.74;99362.58;1706286;82;22029;-61
2022/08/19 07:28:51;;;;;;;8.23;3.90;;;;;;;26.80;70.58;99359.16;1714613;82;21527;-61
2022/08/19 07:31:21;;;;;;;10.27;4.40;;;;;;;26.92;71.08;99359.62;1714012;82;21604;-62
2022/08/19 07:33:49;;;;;;;13.50;5.03;;;;;;;27.07;69.78;99362.36;1704970;82;21612;-61
2022/08/19 07:36:19;;;;;;;13.95;4.03;;;;;;;27.10;68.02;99366.06;1687017;83;21486;-61
2022/08/19 07:38:48;;;;;;;10.90;4.80;;;;;;;27.13;67.93;99369.76;1693134;83;21917;-62
2022/08/19 07:41:21;;;;;;;15.58;4.35;;;;;;;27.21;67.58;99372.39;1692394;82;21595;-62
2022/08/19 07:43:49;;;;;;;9.70;4.40;;;;;;;27.28;67.95;99363.11;1690866;83;21618;-61
2022/08/19 07:46:16;;;;;;;10.75;4.78;;;;;;;27.41;67.65;99364.69;1689105;83;21460;-62
2022/08/19 07:48:46;;;;;;;11.48;4.70;;;;;;;27.51;67.60;99366.61;1693282;82;21476;-61
2022/08/19 07:51:13;;;;;;;8.20;4.33;;;;;;;27.63;67.68;99370.23;1709533;82;21767;-62
2022/08/19 07:53:39;;;;;;;15.28;5.28;;;;;;;27.54;67.34;99363.56;1679816;83;21542;-63
2022/08/19 07:56:06;;;;;;;10.10;4.90;;;;;;;27.28;67.17;99328.85;1684232;84;21483;-62
2022/08/19 07:58:36;;;;;;;16.85;4.72;;;;;;;27.60;67.40;99369.27;1683532;83;21615;-62
2022/08/19 08:01:04;;;;;;;10.00;4.80;;;;;;;27.70;66.57;99368.48;1679159;83;21477;-62
2022/08/19 08:09:20;;;;;;;12.88;4.62;;;;;;;27.89;65.92;99378.78;1688247;83;21437;-62
2022/08/19 08:11:49;;;;;;;9.70;4.83;;;;;;;27.97;65.21;99380.55;1681053;83;21818;-62
2022/08/19 08:14:19;;;;;;;15.63;4.50;;;;;;;28.09;64.73;99379.61;1678210;83;21569;-62
2022/08/19 08:16:46;;;;;;;13.43;4.53;;;;;;;28.16;63.65;99377.81;1677962;84;22182;-61
2022/08/19 08:19:16;;;;;;;19.00;4.35;;;;;;;28.23;64.34;99386.03;1663192;84;21498;-61
2022/08/19 08:21:43;;;;;;;17.57;5.22;;;;;;;28.24;63.62;99387.73;1689947;82;21519;-61
2022/08/19 08:24:10;;;;;;;15.00;4.83;;;;;;;28.23;63.52;99388.22;1700414;83;21602;-60
2022/08/19 08:26:37;;;;;;;21.57;4.92;;;;;;;28.25;64.71;99386.68;1699020;82;21237;-61
2022/08/19 08:29:04;;;;;;;13.65;4.85;;;;;;;28.31;64.61;99393.55;1699453;82;21940;-60
2022/08/19 08:31:30;;;;;;;13.32;5.10;;;;;;;28.33;64.06;99390.14;1689494;83;21528;-60
2022/08/19 08:33:57;;;;;;;15.70;5.40;;;;;;;28.36;62.84;99394.33;1695977;82;21607;-60
2022/08/19 08:36:25;;;;;;;19.40;4.87;;;;;;;28.39;63.34;99387.70;1697029;82;21450;-61
2022/08/19 08:38:52;;;;;;;12.73;4.67;;;;;;;28.48;62.84;99391.98;1708303;82;21503;-61
2022/08/19 08:42:00;;;;;;;12.23;4.60;;;;;;;28.53;62.96;99393.64;1696041;82;22131;-61
2022/08/19 08:44:38;;;;;;;16.32;4.62;;;;;;;28.65;61.94;99385.88;1697733;82;21621;-62
2022/08/19 08:47:12;;;;;;;14.18;4.53;;;;;;;28.83;61.33;99389.02;1694493;83;21414;-61
2022/08/19 08:49:51;;;;;;;19.65;5.28;;;;;;;28.98;60.63;99384.09;1694345;82;21746;-62
2022/08/19 08:52:26;;;;;;;12.68;5.40;;;;;;;29.03;59.38;99380.31;1695276;83;22605;-62
2022/08/19 08:54:57;;;;;;;13.53;4.62;;;;;;;29.03;60.14;99382.49;1695551;82;21741;-62
2022/08/19 08:57:40;;;;;;;13.75;4.42;;;;;;;29.10;61.33;99389.31;1691565;82;21504;-61
2022/08/19 09:00:13;;;;;;;13.88;4.50;;;;;;;29.15;59.88;99396.38;1695589;82;21559;-59
2022/08/19 09:02:40;;;;;;;8.30;4.40;;;;;;;29.22;57.91;99387.83;1693744;83;21185;-59
2022/08/19 09:05:09;;;;;;;15.43;4.67;;;;;;;29.26;58.64;99382.34;1695797;82;21646;-59
2022/08/19 09:08:11;;;;;;;20.82;5.00;;;;;;;29.34;58.52;99382.72;1644965;83;21842;-60
2022/08/19 09:10:41;;;;;;;13.30;4.67;;;;;;;29.42;59.26;99384.45;1673937;84;21579;-61
2022/08/19 09:13:44;;;;;;;15.50;4.87;;;;;;;29.46;58.15;99377.13;1733795;80;21018;-59
2022/08/19 09:16:15;;;;;;;11.03;4.35;;;;;;;29.54;57.20;99383.44;1731267;81;21503;-59
2022/08/19 09:18:54;;;;;;;14.53;5.42;;;;;;;29.57;57.02;99385.22;1741735;80;21683;-62
2022/08/19 09:21:22;;;;;;;25.97;4.65;;;;;;;29.63;57.15;99386.30;1734995;80;21862;-61
2022/08/19 09:23:49;;;;;;;12.60;4.72;;;;;;;29.62;56.57;99393.60;1734859;80;22299;-61
2022/08/19 09:26:19;;;;;;;23.52;5.40;;;;;;;29.62;56.22;99392.25;1729447;81;21519;-60
2022/08/19 09:28:48;;;;;;;20.60;4.53;;;;;;;29.57;55.71;99395.22;1726219;80;21540;-61
2022/08/19 09:31:21;;;;;;;17.02;5.10;;;;;;;29.57;55.51;99397.92;1728240;80;21545;-60
2022/08/19 09:33:48;;;;;;;14.47;5.00;;;;;;;29.67;55.69;99399.80;1727200;81;21765;-60
2022/08/19 09:36:18;;;;;;;10.60;4.50;;;;;;;29.83;55.66;99398.17;1695683;82;21589;-61
2022/08/19 09:38:45;;;;;;;14.07;4.60;;;;;;;29.99;54.76;99392.13;1734299;81;21732;-61
2022/08/19 09:41:16;;;;;;;12.43;4.83;;;;;;;30.06;54.96;99386.24;1728633;81;21507;-61
2022/08/19 09:43:45;;;;;;;16.00;4.83;;;;;;;30.13;53.75;99387.66;1740070;80;21558;-60
2022/08/19 09:46:12;;;;;;;19.57;5.08;;;;;;;30.21;53.66;99388.84;1731742;80;22030;-60
2022/08/19 09:48:40;;;;;;;13.20;5.30;;;;;;;30.27;53.62;99394.81;1732725;80;21501;-61
2022/08/19 09:51:10;;;;;;;9.63;5.03;;;;;;;30.34;54.19;99395.72;1683812;82;21551;-61
2022/08/19 09:53:37;;;;;;;12.37;4.95;;;;;;;30.38;53.75;99386.14;1734758;79;21456;-61
2022/08/19 09:56:05;;;;;;;14.23;5.12;;;;;;;30.47;52.81;99384.94;1739528;80;27191;-60
2022/08/19 09:58:33;;;;;;;7.87;4.42;;;;;;;30.57;51.77;99390.02;1698740;82;21550;-61
2022/08/19 10:01:01;;;;;;;15.25;5.15;;;;;;;30.60;52.46;99393.67;1735674;80;21604;-60
2022/08/19 10:03:29;;;;;;;11.73;5.00;;;;;;;30.65;51.61;99393.91;1756316;80;21597;-61
2022/08/19 10:05:57;;;;;;;17.85;4.85;;;;;;;30.70;52.08;99389.74;1733086;80;21029;-60
2022/08/19 10:08:34;;;;;;;13.45;4.53;;;;;;;30.82;52.13;99396.27;1734573;80;22243;-59
2022/08/19 10:11:02;;;;;;;18.02;5.08;;;;;;;30.98;52.29;99398.63;1696489;82;23259;-59
2022/08/19 10:13:31;;;;;;;11.63;4.75;;;;;;;31.13;51.52;99399.83;1712284;82;21417;-60
2022/08/19 10:16:07;;;;;;;14.28;4.70;;;;;;;31.06;51.57;99401.68;1702666;82;21494;-60
2022/08/19 10:18:35;;;;;;;13.15;5.15;;;;;;;31.05;52.14;99408.16;1702290;82;21502;-59
2022/08/19 10:21:14;;;;;;;20.43;5.35;;;;;;;30.96;52.23;99403.96;1699752;82;21419;-61
2022/08/19 10:23:45;;;;;;;15.40;4.90;;;;;;;31.06;52.36;99405.75;1677929;83;21959;-60
2022/08/19 10:26:22;;;;;;;7.35;4.50;;;;;;;31.17;52.33;99408.40;1686772;83;21699;-60
2022/08/19 10:28:49;;;;;;;13.80;4.60;;;;;;;31.22;50.89;99401.84;1686399;83;21513;-60
2022/08/19 10:31:19;;;;;;;14.33;4.95;;;;;;;31.32;50.66;99404.98;1686640;83;21520;-60
2022/08/19 10:33:47;;;;;;;12.15;4.65;;;;;;;31.35;50.56;99410.53;1683728;83;21516;-61
2022/08/19 10:36:17;;;;;;;17.07;4.87;;;;;;;31.33;51.09;99406.66;1686873;83;21793;-58
2022/08/19 10:38:46;;;;;;;16.07;4.67;;;;;;;31.28;52.45;99414.59;1682314;82;21555;-58
2022/08/19 10:41:16;;;;;;;10.35;5.10;;;;;;;31.17;51.60;99413.83;1684810;82;21451;-58
2022/08/19 10:43:44;;;;;;;14.70;4.90;;;;;;;30.94;52.13;99425.88;1698873;82;21524;-59
2022/08/19 10:46:14;;;;;;;11.15;4.53;;;;;;;30.66;52.21;99436.26;1700116;82;21074;-58
2022/08/19 10:48:41;;;;;;;11.28;4.80;;;;;;;30.44;52.85;99430.11;1698200;82;22098;-59
2022/08/19 10:53:55;;;;;;;14.00;5.65;;;;;;;30.27;53.39;99436.34;1684303;82;21562;-59
2022/08/19 10:59:07;;;;;;;13.20;4.83;;;;;;;30.45;54.13;99451.28;1695929;82;21602;-58
2022/08/19 11:01:34;;;;;;;9.98;4.92;;;;;;;30.61;53.26;99456.89;1688250;82;22098;-59
2022/08/19 11:04:03;;;;;;;13.05;5.42;;;;;;;30.62;52.64;99451.80;1694080;83;21453;-59
2022/08/19 11:06:31;;;;;;;10.25;4.83;;;;;;;30.71;52.59;99456.02;1694731;82;21636;-59
2022/08/19 11:08:59;;;;;;;12.63;5.00;;;;;;;30.65;53.53;99448.70;1669542;83;21455;-58
2022/08/19 11:11:28;;;;;;;12.07;4.92;;;;;;;30.66;53.97;99451.18;1690059;82;21640;-59
2022/08/19 11:13:54;;;;;;;13.03;5.05;;;;;;;30.54;53.23;99455.52;1741493;80;21821;-58
2022/08/19 11:16:25;;;;;;;12.10;5.40;;;;;;;30.27;54.60;99459.39;1690459;82;21175;-60
2022/08/19 11:18:54;;;;;;;16.00;4.62;;;;;;;30.16;55.31;99453.16;1686361;83;21530;-58
2022/08/19 11:21:30;;;;;;;10.15;4.53;;;;;;;30.11;55.79;99451.55;1695390;81;21037;-59
2022/08/19 11:23:59;;;;;;;10.53;5.00;;;;;;;30.19;55.97;99456.81;1695160;82;21550;-59
2022/08/19 11:26:29;;;;;;;11.50;5.47;;;;;;;30.36;56.83;99451.13;1692394;82;21933;-59
2022/08/19 11:28:57;;;;;;;12.65;4.97;;;;;;;30.51;55.58;99456.42;1722209;80;21644;-58
2022/08/19 11:31:28;;;;;;;12.80;5.37;;;;;;;30.58;54.71;99453.24;1693761;82;21605;-59
2022/08/19 11:33:59;;;;;;;14.55;4.95;;;;;;;30.58;54.78;99455.95;1723511;81;21526;-59
2022/08/19 11:36:26;;;;;;;9.98;5.08;;;;;;;30.58;54.32;99459.50;1727722;80;21661;-59
2022/08/19 11:38:53;;;;;;;8.50;4.80;;;;;;;30.66;54.08;99462.03;1730474;81;21853;-59
2022/08/19 11:41:20;;;;;;;10.95;4.67;;;;;;;30.65;54.28;99456.83;1686391;84;21570;-59
2022/08/19 11:43:47;;;;;;;12.13;4.45;;;;;;;30.66;54.20;99457.97;1692613;82;21599;-59
2022/08/19 11:46:15;;;;;;;9.20;4.40;;;;;;;30.59;54.40;99455.76;1689547;82;21184;-59
2022/08/19 11:48:41;;;;;;;;;;;;;;;30.55;54.50;99453.10;1695096;82;21048;-59
2022/08/19 11:51:11;;;;;;;8.80;4.85;;;;;;;30.49;54.06;99451.20;1693060;82;21207;-59
2022/08/19 11:53:38;;;;;;;13.75;4.80;;;;;;;30.58;54.84;99456.78;1685735;82;21595;-60
2022/08/19 11:56:05;;;;;;;12.25;4.65;;;;;;;30.72;54.38;99452.78;1690519;81;21594;-60
2022/08/19 11:58:34;;;;;;;10.00;4.65;;;;;;;30.94;53.71;99455.73;1690162;82;20982;-59
2022/08/19 12:01:00;;;;;;;;;;;;;;;31.16;53.29;99448.30;1695839;82;21052;-59